sensor_id;sensor_type;location;lat;lon;timestamp;pressure;altitude;pressure_sealevel;temperature;humidity
75740;BME280;64357;51.344;6.550;2023-07-30T00:01:44;100494.75;;;16.82;100.00
75740;BME280;64357;51.344;6.550;2023-07-30T00:04:18;100492.97;;;16.81;100.00
75740;BME280;64357;51.344;6.550;2023-07-30T00:06:46;100497.81;;;16.76;100.00
75740;BME280;64357;51.344;6.550;2023-07-30T00:09:12;100496.59;;;16.71;100.00
75740;BME280;64357;51.344;6.550;2023-07-30T00:11:37;100492.00;;;16.67;100.00
75740;BME280;64357;51.344;6.550;2023-07-30T00:14:02;100492.94;;;16.56;100.00
75740;BME280;64357;51.344;6.550;2023-07-30T00:16:28;100486.31;;;16.47;100.00
75740;BME280;64357;51.344;6.550;2023-07-30T00:18:53;100488.91;;;16.47;100.00
75740;BME280;64357;51.344;6.550;2023-07-30T00:21:22;100495.78;;;16.35;100.00
75740;BME280;64357;51.344;6.550;2023-07-30T00:23:47;100497.88;;;16.41;100.00
75740;BME280;64357;51.344;6.550;2023-07-30T00:26:15;100493.88;;;16.33;100.00
75740;BME280;64357;51.344;6.550;2023-07-30T00:28:43;100503.66;;;16.25;100.00
75740;BME280;64357;51.344;6.550;2023-07-30T00:31:11;100503.97;;;16.30;100.00
75740;BME280;64357;51.344;6.550;2023-07-30T00:33:36;100498.94;;;16.31;100.00
75740;BME280;64357;51.344;6.550;2023-07-30T00:36:01;100497.47;;;16.23;100.00
75740;BME280;64357;51.344;6.550;2023-07-30T00:38:27;100501.75;;;16.22;100.00
75740;BME280;64357;51.344;6.550;2023-07-30T00:40:52;100495.81;;;16.23;100.00
75740;BME280;64357;51.344;6.550;2023-07-30T00:43:18;100498.94;;;16.31;100.00
75740;BME280;64357;51.344;6.550;2023-07-30T00:45:44;100501.41;;;16.18;100.00
75740;BME280;64357;51.344;6.550;2023-07-30T00:48:10;100500.88;;;16.10;100.00
75740;BME280;64357;51.344;6.550;2023-07-30T00:50:42;100502.56;;;16.10;100.00
75740;BME280;64357;51.344;6.550;2023-07-30T00:53:14;100501.75;;;16.11;100.00
75740;BME280;64357;51.344;6.550;2023-07-30T00:55:45;100507.59;;;16.08;100.00
75740;BME280;64357;51.344;6.550;2023-07-30T00:58:11;100502.91;;;16.03;100.00
75740;BME280;64357;51.344;6.550;2023-07-30T01:00:40;100517.81;;;16.07;100.00
75740;BME280;64357;51.344;6.550;2023-07-30T01:03:06;100508.72;;;16.00;100.00
75740;BME280;64357;51.344;6.550;2023-07-30T01:05:32;100515.34;;;15.96;100.00
75740;BME280;64357;51.344;6.550;2023-07-30T01:07:58;100509.84;;;16.04;100.00
75740;BME280;64357;51.344;6.550;2023-07-30T01:10:24;100513.31;;;16.04;100.00
75740;BME280;64357;51.344;6.550;2023-07-30T01:12:52;100521.84;;;15.91;100.00
75740;BME280;64357;51.344;6.550;2023-07-30T01:15:18;100521.94;;;15.93;100.00
75740;BME280;64357;51.344;6.550;2023-07-30T01:17:44;100528.34;;;15.86;100.00
75740;BME280;64357;51.344;6.550;2023-07-30T01:20:12;100534.28;;;15.85;100.00
75740;BME280;64357;51.344;6.550;2023-07-30T01:22:40;100538.28;;;15.82;100.00
75740;BME280;64357;51.344;6.550;2023-07-30T01:25:06;100530.81;;;15.73;100.00
75740;BME280;64357;51.344;6.550;2023-07-30T01:27:39;100533.72;;;15.78;100.00
75740;BME280;64357;51.344;6.550;2023-07-30T01:30:21;100532.94;;;15.79;100.00
75740;BME280;64357;51.344;6.550;2023-07-30T01:32:49;100545.56;;;15.64;100.00
75740;BME280;64357;51.344;6.550;2023-07-30T01:35:20;100535.25;;;15.64;100.00
75740;BME280;64357;51.344;6.550;2023-07-30T01:37:50;100550.63;;;15.74;100.00
75740;BME280;64357;51.344;6.550;2023-07-30T01:40:20;100557.00;;;15.67;100.00
75740;BME280;64357;51.344;6.550;2023-07-30T01:42:46;100556.00;;;15.65;100.00
75740;BME280;64357;51.344;6.550;2023-07-30T01:45:11;100543.13;;;15.65;100.00
75740;BME280;64357;51.344;6.550;2023-07-30T01:47:39;100542.81;;;15.51;100.00
75740;BME280;64357;51.344;6.550;2023-07-30T01:50:05;100561.41;;;15.58;100.00
75740;BME280;64357;51.344;6.550;2023-07-30T01:52:30;100553.81;;;15.48;100.00
75740;BME280;64357;51.344;6.550;2023-07-30T01:54:56;100553.22;;;15.52;100.00
75740;BME280;64357;51.344;6.550;2023-07-30T01:57:23;100560.38;;;15.44;100.00
75740;BME280;64357;51.344;6.550;2023-07-30T01:59:48;100561.19;;;15.43;100.00
75740;BME280;64357;51.344;6.550;2023-07-30T02:02:14;100554.88;;;15.40;100.00
75740;BME280;64357;51.344;6.550;2023-07-30T02:04:41;100553.31;;;15.30;100.00
75740;BME280;64357;51.344;6.550;2023-07-30T02:07:07;100551.03;;;15.23;100.00
75740;BME280;64357;51.344;6.550;2023-07-30T02:09:34;100558.53;;;15.20;100.00
75740;BME280;64357;51.344;6.550;2023-07-30T02:12:00;100561.31;;;15.23;100.00
75740;BME280;64357;51.344;6.550;2023-07-30T02:14:27;100559.78;;;15.25;100.00
75740;BME280;64357;51.344;6.550;2023-07-30T02:16:53;100558.31;;;15.29;100.00
75740;BME280;64357;51.344;6.550;2023-07-30T02:19:18;100547.78;;;15.14;100.00
75740;BME280;64357;51.344;6.550;2023-07-30T02:21:43;100528.69;;;15.00;100.00
75740;BME280;64357;51.344;6.550;2023-07-30T02:24:11;100556.03;;;15.10;100.00
75740;BME280;64357;51.344;6.550;2023-07-30T02:26:39;100547.16;;;15.06;100.00
75740;BME280;64357;51.344;6.550;2023-07-30T02:29:07;100549.09;;;15.09;100.00
75740;BME280;64357;51.344;6.550;2023-07-30T02:31:32;100556.56;;;15.06;100.00
75740;BME280;64357;51.344;6.550;2023-07-30T02:34:00;100529.25;;;14.96;100.00
75740;BME280;64357;51.344;6.550;2023-07-30T02:36:25;100549.09;;;15.09;100.00
75740;BME280;64357;51.344;6.550;2023-07-30T02:38:50;100544.94;;;15.11;100.00
75740;BME280;64357;51.344;6.550;2023-07-30T02:41:16;100555.91;;;15.08;100.00
75740;BME280;64357;51.344;6.550;2023-07-30T02:43:42;100550.06;;;14.99;100.00
75740;BME280;64357;51.344;6.550;2023-07-30T02:46:07;100550.66;;;15.07;100.00
75740;BME280;64357;51.344;6.550;2023-07-30T02:48:33;100551.97;;;15.02;100.00
75740;BME280;64357;51.344;6.550;2023-07-30T02:50:58;100542.44;;;15.01;100.00
75740;BME280;64357;51.344;6.550;2023-07-30T02:53:24;100553.44;;;15.10;100.00
75740;BME280;64357;51.344;6.550;2023-07-30T02:55:49;100554.66;;;15.03;100.00
75740;BME280;64357;51.344;6.550;2023-07-30T02:58:14;100548.25;;;14.98;100.00
75740;BME280;64357;51.344;6.550;2023-07-30T03:00:40;100551.50;;;14.96;100.00
75740;BME280;64357;51.344;6.550;2023-07-30T03:03:05;100556.56;;;15.06;100.00
75740;BME280;64357;51.344;6.550;2023-07-30T03:05:31;100544.78;;;14.98;100.00
75740;BME280;64357;51.344;6.550;2023-07-30T03:07:56;100559.34;;;14.97;100.00
75740;BME280;64357;51.344;6.550;2023-07-30T03:10:23;100554.97;;;14.96;100.00
75740;BME280;64357;51.344;6.550;2023-07-30T03:12:51;100563.69;;;14.98;100.00
75740;BME280;64357;51.344;6.550;2023-07-30T03:15:19;100551.69;;;14.87;100.00
75740;BME280;64357;51.344;6.550;2023-07-30T03:17:44;100567.22;;;14.88;100.00
75740;BME280;64357;51.344;6.550;2023-07-30T03:20:10;100562.59;;;14.73;100.00
75740;BME280;64357;51.344;6.550;2023-07-30T03:22:35;100572.56;;;14.80;100.00
75740;BME280;64357;51.344;6.550;2023-07-30T03:25:01;100562.59;;;14.73;100.00
75740;BME280;64357;51.344;6.550;2023-07-30T03:27:26;100565.56;;;14.67;100.00
75740;BME280;64357;51.344;6.550;2023-07-30T03:29:51;100573.56;;;14.82;100.00
75740;BME280;64357;51.344;6.550;2023-07-30T03:32:17;100564.59;;;14.77;100.00
75740;BME280;64357;51.344;6.550;2023-07-30T03:34:42;100569.88;;;14.78;100.00
75740;BME280;64357;51.344;6.550;2023-07-30T03:37:08;100584.41;;;14.78;100.00
75740;BME280;64357;51.344;6.550;2023-07-30T03:39:33;100579.28;;;14.78;100.00
75740;BME280;64357;51.344;6.550;2023-07-30T03:41:58;100590.66;;;14.81;100.00
75740;BME280;64357;51.344;6.550;2023-07-30T03:44:26;100580.81;;;14.76;100.00
75740;BME280;64357;51.344;6.550;2023-07-30T03:46:51;100576.06;;;14.70;100.00
75740;BME280;64357;51.344;6.550;2023-07-30T03:49:17;100590.56;;;14.80;100.00
75740;BME280;64357;51.344;6.550;2023-07-30T03:51:44;100585.53;;;14.81;100.00
75740;BME280;64357;51.344;6.550;2023-07-30T03:54:12;100586.25;;;14.90;100.00
75740;BME280;64357;51.344;6.550;2023-07-30T03:56:37;100586.13;;;14.89;100.00
75740;BME280;64357;51.344;6.550;2023-07-30T03:59:03;100579.59;;;14.82;100.00
75740;BME280;64357;51.344;6.550;2023-07-30T04:01:28;100589.25;;;14.85;100.00
75740;BME280;64357;51.344;6.550;2023-07-30T04:03:55;100585.53;;;14.81;100.00
75740;BME280;64357;51.344;6.550;2023-07-30T04:06:20;100586.25;;;14.90;100.00
75740;BME280;64357;51.344;6.550;2023-07-30T04:08:46;100590.63;;;14.91;100.00
75740;BME280;64357;51.344;6.550;2023-07-30T04:11:11;100574.34;;;15.03;100.00
75740;BME280;64357;51.344;6.550;2023-07-30T04:13:42;100566.53;;;15.01;100.00
75740;BME280;64357;51.344;6.550;2023-07-30T04:16:07;100595.44;;;15.20;100.00
75740;BME280;64357;51.344;6.550;2023-07-30T04:18:32;100590.41;;;15.22;100.00
75740;BME280;64357;51.344;6.550;2023-07-30T04:20:58;100587.38;;;15.16;100.00
75740;BME280;64357;51.344;6.550;2023-07-30T04:23:23;100583.22;;;15.18;100.00
75740;BME280;64357;51.344;6.550;2023-07-30T04:25:51;100597.53;;;15.36;100.00
75740;BME280;64357;51.344;6.550;2023-07-30T04:28:17;100586.31;;;15.36;100.00
75740;BME280;64357;51.344;6.550;2023-07-30T04:30:42;100595.59;;;15.34;100.00
75740;BME280;64357;51.344;6.550;2023-07-30T04:33:12;100595.41;;;15.42;100.00
75740;BME280;64357;51.344;6.550;2023-07-30T04:35:39;100594.47;;;15.64;100.00
75740;BME280;64357;51.344;6.550;2023-07-30T04:38:04;100595.13;;;15.61;100.00
75740;BME280;64357;51.344;6.550;2023-07-30T04:40:30;100602.56;;;15.68;100.00
75740;BME280;64357;51.344;6.550;2023-07-30T04:42:55;100600.78;;;15.67;100.00
75740;BME280;64357;51.344;6.550;2023-07-30T04:45:20;100597.97;;;15.76;100.00
75740;BME280;64357;51.344;6.550;2023-07-30T04:47:46;100598.88;;;15.88;100.00
75740;BME280;64357;51.344;6.550;2023-07-30T04:50:11;100593.06;;;15.91;100.00
75740;BME280;64357;51.344;6.550;2023-07-30T04:52:38;100595.31;;;15.86;100.00
75740;BME280;64357;51.344;6.550;2023-07-30T04:55:06;100601.78;;;15.81;100.00
75740;BME280;64357;51.344;6.550;2023-07-30T04:57:34;100604.72;;;15.86;100.00
75740;BME280;64357;51.344;6.550;2023-07-30T04:59:59;100601.16;;;15.84;100.00
75740;BME280;64357;51.344;6.550;2023-07-30T05:02:24;100595.75;;;15.92;100.00
75740;BME280;64357;51.344;6.550;2023-07-30T05:04:50;100590.25;;;15.88;100.00
75740;BME280;64357;51.344;6.550;2023-07-30T05:07:19;100601.91;;;16.06;100.00
75740;BME280;64357;51.344;6.550;2023-07-30T05:09:47;100597.69;;;15.95;100.00
75740;BME280;64357;51.344;6.550;2023-07-30T05:12:13;100593.97;;;16.15;100.00
75740;BME280;64357;51.344;6.550;2023-07-30T05:14:38;100591.41;;;16.38;100.00
75740;BME280;64357;51.344;6.550;2023-07-30T05:17:06;100597.78;;;16.43;100.00
75740;BME280;64357;51.344;6.550;2023-07-30T05:19:31;100597.00;;;16.33;100.00
75740;BME280;64357;51.344;6.550;2023-07-30T05:22:00;100607.31;;;16.44;100.00
75740;BME280;64357;51.344;6.550;2023-07-30T05:24:27;100596.66;;;16.28;100.00
75740;BME280;64357;51.344;6.550;2023-07-30T05:26:52;100601.59;;;16.48;100.00
75740;BME280;64357;51.344;6.550;2023-07-30T05:29:17;100613.34;;;16.45;100.00
75740;BME280;64357;51.344;6.550;2023-07-30T05:31:43;100608.31;;;16.35;100.00
75740;BME280;64357;51.344;6.550;2023-07-30T05:34:10;100611.13;;;16.38;100.00
75740;BME280;64357;51.344;6.550;2023-07-30T05:36:36;100615.03;;;16.44;100.00
75740;BME280;64357;51.344;6.550;2023-07-30T05:39:06;100607.75;;;16.27;100.00
75740;BME280;64357;51.344;6.550;2023-07-30T05:41:31;100613.78;;;16.51;100.00
75740;BME280;64357;51.344;6.550;2023-07-30T05:43:57;100612.78;;;16.49;100.00
75740;BME280;64357;51.344;6.550;2023-07-30T05:46:24;100603.50;;;16.27;100.00
75740;BME280;64357;51.344;6.550;2023-07-30T05:48:49;100608.22;;;16.33;100.00
75740;BME280;64357;51.344;6.550;2023-07-30T05:51:17;100618.97;;;16.39;100.00
75740;BME280;64357;51.344;6.550;2023-07-30T05:53:42;100622.44;;;16.40;100.00
75740;BME280;64357;51.344;6.550;2023-07-30T05:56:10;100613.56;;;16.60;100.00
75740;BME280;64357;51.344;6.550;2023-07-30T05:58:38;100610.56;;;16.42;100.00
75740;BME280;64357;51.344;6.550;2023-07-30T06:01:03;100627.25;;;16.35;100.00
75740;BME280;64357;51.344;6.550;2023-07-30T06:03:28;100625.81;;;16.15;100.00
75740;BME280;64357;51.344;6.550;2023-07-30T06:05:54;100620.31;;;16.11;100.00
75740;BME280;64357;51.344;6.550;2023-07-30T06:08:19;100613.91;;;16.06;100.00
75740;BME280;64357;51.344;6.550;2023-07-30T06:10:47;100634.88;;;16.22;100.00
75740;BME280;64357;51.344;6.550;2023-07-30T06:13:17;100639.91;;;16.09;100.00
75740;BME280;64357;51.344;6.550;2023-07-30T06:15:42;100638.44;;;16.36;100.00
75740;BME280;64357;51.344;6.550;2023-07-30T06:18:08;100638.00;;;16.18;100.00
75740;BME280;64357;51.344;6.550;2023-07-30T06:20:35;100636.56;;;16.33;100.00
75740;BME280;64357;51.344;6.550;2023-07-30T06:23:01;100630.28;;;16.30;100.00
75740;BME280;64357;51.344;6.550;2023-07-30T06:25:29;100628.38;;;16.50;100.00
75740;BME280;64357;51.344;6.550;2023-07-30T06:27:55;100624.63;;;16.82;100.00
75740;BME280;64357;51.344;6.550;2023-07-30T06:30:22;100617.69;;;16.81;100.00
75740;BME280;64357;51.344;6.550;2023-07-30T06:32:50;100625.88;;;16.75;100.00
75740;BME280;64357;51.344;6.550;2023-07-30T06:35:20;100621.84;;;16.79;100.00
75740;BME280;64357;51.344;6.550;2023-07-30T06:37:45;100627.91;;;16.68;100.00
75740;BME280;64357;51.344;6.550;2023-07-30T06:40:11;100632.19;;;16.44;100.00
75740;BME280;64357;51.344;6.550;2023-07-30T06:42:36;100639.91;;;16.56;100.00
75740;BME280;64357;51.344;6.550;2023-07-30T06:45:01;100624.66;;;16.59;100.00
75740;BME280;64357;51.344;6.550;2023-07-30T06:47:27;100639.81;;;16.66;100.00
75740;BME280;64357;51.344;6.550;2023-07-30T06:49:55;100630.84;;;16.72;100.00
75740;BME280;64357;51.344;6.550;2023-07-30T06:52:20;100633.84;;;16.67;100.00
75740;BME280;64357;51.344;6.550;2023-07-30T06:54:45;100641.66;;;17.03;100.00
75740;BME280;64357;51.344;6.550;2023-07-30T06:57:11;100647.84;;;16.82;100.00
75740;BME280;64357;51.344;6.550;2023-07-30T06:59:56;100650.34;;;16.81;100.00
75740;BME280;64357;51.344;6.550;2023-07-30T07:02:23;100645.97;;;16.68;100.00
75740;BME280;64357;51.344;6.550;2023-07-30T07:04:48;100648.75;;;16.83;100.00
75740;BME280;64357;51.344;6.550;2023-07-30T07:07:14;100640.28;;;16.72;100.00
75740;BME280;64357;51.344;6.550;2023-07-30T07:09:40;100651.94;;;16.78;100.00
75740;BME280;64357;51.344;6.550;2023-07-30T07:12:06;100640.56;;;16.76;100.00
75740;BME280;64357;51.344;6.550;2023-07-30T07:14:32;100644.03;;;17.00;100.00
75740;BME280;64357;51.344;6.550;2023-07-30T07:16:57;100651.84;;;17.14;100.00
75740;BME280;64357;51.344;6.550;2023-07-30T07:19:23;100642.94;;;17.22;100.00
75740;BME280;64357;51.344;6.550;2023-07-30T07:21:48;100660.88;;;17.32;100.00
75740;BME280;64357;51.344;6.550;2023-07-30T07:24:14;100648.47;;;17.40;99.42
75740;BME280;64357;51.344;6.550;2023-07-30T07:26:39;100645.00;;;17.39;99.14
75740;BME280;64357;51.344;6.550;2023-07-30T07:29:06;100655.13;;;17.36;99.50
75740;BME280;64357;51.344;6.550;2023-07-30T07:31:31;100657.44;;;17.45;99.79
75740;BME280;64357;51.344;6.550;2023-07-30T07:33:57;100652.66;;;17.38;99.15
75740;BME280;64357;51.344;6.550;2023-07-30T07:36:24;100662.59;;;17.20;100.00
75740;BME280;64357;51.344;6.550;2023-07-30T07:38:50;100660.38;;;17.38;99.81
75740;BME280;64357;51.344;6.550;2023-07-30T07:41:16;100670.34;;;17.45;99.18
75740;BME280;64357;51.344;6.550;2023-07-30T07:43:45;100664.56;;;17.36;100.00
75740;BME280;64357;51.344;6.550;2023-07-30T07:46:14;100666.44;;;17.13;100.00
75740;BME280;64357;51.344;6.550;2023-07-30T07:48:40;100664.50;;;17.11;100.00
75740;BME280;64357;51.344;6.550;2023-07-30T07:51:06;100669.44;;;17.19;100.00
75740;BME280;64357;51.344;6.550;2023-07-30T07:53:32;100678.72;;;17.29;100.00
75740;BME280;64357;51.344;6.550;2023-07-30T07:56:00;100676.09;;;17.41;100.00
75740;BME280;64357;51.344;6.550;2023-07-30T07:58:25;100675.88;;;17.38;100.00
75740;BME280;64357;51.344;6.550;2023-07-30T08:00:54;100672.38;;;17.12;100.00
75740;BME280;64357;51.344;6.550;2023-07-30T08:03:20;100666.97;;;17.21;100.00
75740;BME280;64357;51.344;6.550;2023-07-30T08:05:45;100686.44;;;17.66;99.82
75740;BME280;64357;51.344;6.550;2023-07-30T08:08:11;100676.38;;;17.82;98.28
75740;BME280;64357;51.344;6.550;2023-07-30T08:10:40;100685.53;;;17.65;98.32
75740;BME280;64357;51.344;6.550;2023-07-30T08:13:09;100678.97;;;17.70;98.98
75740;BME280;64357;51.344;6.550;2023-07-30T08:15:35;100683.81;;;17.77;97.89
75740;BME280;64357;51.344;6.550;2023-07-30T08:18:00;100676.38;;;17.82;97.75
75740;BME280;64357;51.344;6.550;2023-07-30T08:20:25;100677.88;;;17.78;97.79
75740;BME280;64357;51.344;6.550;2023-07-30T08:23:12;100677.19;;;17.69;99.07
75740;BME280;64357;51.344;6.550;2023-07-30T08:25:40;100677.72;;;18.02;97.10
75740;BME280;64357;51.344;6.550;2023-07-30T08:28:05;100674.56;;;18.06;96.70
75740;BME280;64357;51.344;6.550;2023-07-30T08:30:33;100688.53;;;17.96;97.15
75740;BME280;64357;51.344;6.550;2023-07-30T08:33:00;100676.84;;;18.15;95.81
75740;BME280;64357;51.344;6.550;2023-07-30T08:35:28;100695.97;;;18.30;95.06
75740;BME280;64357;51.344;6.550;2023-07-30T08:37:54;100684.44;;;18.38;93.94
75740;BME280;64357;51.344;6.550;2023-07-30T08:40:25;100690.72;;;18.42;93.85
75740;BME280;64357;51.344;6.550;2023-07-30T08:42:51;100684.06;;;18.72;92.94
75740;BME280;64357;51.344;6.550;2023-07-30T08:45:17;100684.66;;;18.81;91.36
75740;BME280;64357;51.344;6.550;2023-07-30T08:47:49;100684.84;;;18.84;90.46
75740;BME280;64357;51.344;6.550;2023-07-30T08:50:14;100685.66;;;18.83;89.56
75740;BME280;64357;51.344;6.550;2023-07-30T08:52:45;100695.88;;;18.81;90.83
75740;BME280;64357;51.344;6.550;2023-07-30T08:55:15;100684.56;;;19.21;88.16
75740;BME280;64357;51.344;6.550;2023-07-30T08:57:45;100695.09;;;19.37;86.58
75740;BME280;64357;51.344;6.550;2023-07-30T09:00:11;100695.91;;;19.36;86.69
75740;BME280;64357;51.344;6.550;2023-07-30T09:02:54;100693.91;;;18.90;88.75
75740;BME280;64357;51.344;6.550;2023-07-30T09:05:22;100687.00;;;19.04;87.62
75740;BME280;64357;51.344;6.550;2023-07-30T09:07:48;100694.28;;;19.94;83.31
75740;BME280;64357;51.344;6.550;2023-07-30T09:10:14;100702.09;;;21.15;77.11
75740;BME280;64357;51.344;6.550;2023-07-30T09:12:39;100711.81;;;22.16;72.43
75740;BME280;64357;51.344;6.550;2023-07-30T09:15:08;100715.75;;;22.59;69.47
75740;BME280;64357;51.344;6.550;2023-07-30T09:17:36;100705.94;;;22.03;70.36
75740;BME280;64357;51.344;6.550;2023-07-30T09:20:04;100710.13;;;21.35;73.04
75740;BME280;64357;51.344;6.550;2023-07-30T09:22:33;100690.03;;;21.97;71.31
75740;BME280;64357;51.344;6.550;2023-07-30T09:25:02;100686.47;;;23.19;65.85
75740;BME280;64357;51.344;6.550;2023-07-30T09:27:28;100710.53;;;22.59;66.41
75740;BME280;64357;51.344;6.550;2023-07-30T09:30:00;100709.50;;;22.92;66.61
75740;BME280;64357;51.344;6.550;2023-07-30T09:32:32;100713.03;;;22.06;69.01
75740;BME280;64357;51.344;6.550;2023-07-30T09:35:08;100705.50;;;21.62;71.28
75740;BME280;64357;51.344;6.550;2023-07-30T09:37:39;100708.75;;;20.79;72.94
75740;BME280;64357;51.344;6.550;2023-07-30T09:40:09;100698.63;;;20.84;73.00
75740;BME280;64357;51.344;6.550;2023-07-30T09:42:36;100695.91;;;21.61;70.30
75740;BME280;64357;51.344;6.550;2023-07-30T09:45:08;100700.25;;;22.62;65.82
75740;BME280;64357;51.344;6.550;2023-07-30T09:47:46;100696.41;;;22.54;64.13
75740;BME280;64357;51.344;6.550;2023-07-30T09:50:14;100705.41;;;22.61;63.40
75740;BME280;64357;51.344;6.550;2023-07-30T09:52:41;100702.53;;;22.04;66.03
75740;BME280;64357;51.344;6.550;2023-07-30T09:55:11;100697.72;;;21.29;68.09
75740;BME280;64357;51.344;6.550;2023-07-30T09:57:39;100705.03;;;21.05;70.40
75740;BME280;64357;51.344;6.550;2023-07-30T10:00:06;100704.16;;;20.90;69.64
75740;BME280;64357;51.344;6.550;2023-07-30T10:02:38;100709.50;;;20.32;71.29
75740;BME280;64357;51.344;6.550;2023-07-30T10:05:16;100706.00;;;20.61;70.82
75740;BME280;64357;51.344;6.550;2023-07-30T10:07:51;100687.66;;;20.14;70.69
75740;BME280;64357;51.344;6.550;2023-07-30T10:10:24;100672.66;;;20.23;70.82
75740;BME280;64357;51.344;6.550;2023-07-30T10:12:56;100714.88;;;20.35;70.34
75740;BME280;64357;51.344;6.550;2023-07-30T10:15:26;100701.81;;;20.19;70.32
75740;BME280;64357;51.344;6.550;2023-07-30T10:17:55;100716.38;;;20.61;68.92
75740;BME280;64357;51.344;6.550;2023-07-30T10:20:34;100698.06;;;21.20;67.41
75740;BME280;64357;51.344;6.550;2023-07-30T10:23:00;100707.69;;;23.08;59.38
75740;BME280;64357;51.344;6.550;2023-07-30T10:25:46;100696.94;;;22.13;61.80
75740;BME280;64357;51.344;6.550;2023-07-30T10:28:33;100703.47;;;23.86;57.72
75740;BME280;64357;51.344;6.550;2023-07-30T10:31:05;100683.38;;;25.11;52.48
75740;BME280;64357;51.344;6.550;2023-07-30T10:33:53;100691.22;;;24.05;55.45
75740;BME280;64357;51.344;6.550;2023-07-30T10:41:53;100706.63;;;21.99;62.47
75740;BME280;64357;51.344;6.550;2023-07-30T10:44:26;100716.47;;;21.56;63.52
75740;BME280;64357;51.344;6.550;2023-07-30T10:46:56;100697.56;;;22.79;59.74
75740;BME280;64357;51.344;6.550;2023-07-30T10:49:22;100702.66;;;24.08;55.97
75740;BME280;64357;51.344;6.550;2023-07-30T10:51:48;100714.91;;;24.72;52.90
75740;BME280;64357;51.344;6.550;2023-07-30T10:54:13;100715.69;;;24.28;53.59
75740;BME280;64357;51.344;6.550;2023-07-30T10:56:43;100716.97;;;23.21;57.38
75740;BME280;64357;51.344;6.550;2023-07-30T10:59:14;100711.47;;;23.52;57.04
75740;BME280;64357;51.344;6.550;2023-07-30T11:01:44;100720.97;;;24.29;55.12
75740;BME280;64357;51.344;6.550;2023-07-30T11:04:14;100721.06;;;24.32;53.83
75740;BME280;64357;51.344;6.550;2023-07-30T11:06:45;100722.75;;;24.72;52.22
75740;BME280;64357;51.344;6.550;2023-07-30T11:09:22;100719.97;;;23.48;56.57
75740;BME280;64357;51.344;6.550;2023-07-30T11:11:51;100709.59;;;23.30;57.71
75740;BME280;64357;51.344;6.550;2023-07-30T11:14:26;100723.06;;;23.22;55.94
75740;BME280;64357;51.344;6.550;2023-07-30T11:16:53;100721.78;;;22.58;58.73
75740;BME280;64357;51.344;6.550;2023-07-30T11:19:21;100733.34;;;22.29;60.48
75740;BME280;64357;51.344;6.550;2023-07-30T11:21:50;100720.59;;;22.01;62.35
75740;BME280;64357;51.344;6.550;2023-07-30T11:24:16;100715.09;;;21.63;63.40
75740;BME280;64357;51.344;6.550;2023-07-30T11:26:42;100711.13;;;22.54;61.24
75740;BME280;64357;51.344;6.550;2023-07-30T11:29:20;100733.81;;;24.25;56.21
75740;BME280;64357;51.344;6.550;2023-07-30T11:31:47;100733.16;;;22.78;59.39
75740;BME280;64357;51.344;6.550;2023-07-30T11:34:14;100733.47;;;23.77;55.83
75740;BME280;64357;51.344;6.550;2023-07-30T11:36:43;100734.06;;;23.52;57.68
75740;BME280;64357;51.344;6.550;2023-07-30T11:39:09;100738.53;;;22.64;59.54
75740;BME280;64357;51.344;6.550;2023-07-30T11:41:37;100717.75;;;23.38;57.74
75740;BME280;64357;51.344;6.550;2023-07-30T11:44:03;100730.19;;;23.44;56.13
75740;BME280;64357;51.344;6.550;2023-07-30T11:46:29;100723.03;;;23.02;57.16
75740;BME280;64357;51.344;6.550;2023-07-30T11:49:11;100737.44;;;23.88;54.33
75740;BME280;64357;51.344;6.550;2023-07-30T11:51:42;100735.59;;;24.05;52.72
75740;BME280;64357;51.344;6.550;2023-07-30T11:54:18;100742.66;;;23.31;53.58
75740;BME280;64357;51.344;6.550;2023-07-30T11:56:53;100727.00;;;23.12;54.93
75740;BME280;64357;51.344;6.550;2023-07-30T11:59:21;100748.78;;;22.60;57.30
75740;BME280;64357;51.344;6.550;2023-07-30T12:01:49;100739.50;;;22.31;59.53
75740;BME280;64357;51.344;6.550;2023-07-30T12:04:15;100755.25;;;22.86;57.69
75740;BME280;64357;51.344;6.550;2023-07-30T12:06:45;100743.88;;;23.20;57.07
75740;BME280;64357;51.344;6.550;2023-07-30T12:09:21;100751.47;;;22.98;58.08
75740;BME280;64357;51.344;6.550;2023-07-30T12:11:58;100753.09;;;23.31;57.19
75740;BME280;64357;51.344;6.550;2023-07-30T12:14:28;100748.97;;;23.74;54.79
75740;BME280;64357;51.344;6.550;2023-07-30T12:17:02;100741.53;;;23.26;55.21
75740;BME280;64357;51.344;6.550;2023-07-30T12:19:29;100748.47;;;23.26;55.59
75740;BME280;64357;51.344;6.550;2023-07-30T12:21:55;100744.94;;;24.61;52.39
75740;BME280;64357;51.344;6.550;2023-07-30T12:24:20;100747.25;;;24.96;50.26
75740;BME280;64357;51.344;6.550;2023-07-30T12:26:47;100733.91;;;24.68;48.79
75740;BME280;64357;51.344;6.550;2023-07-30T12:29:12;100738.19;;;24.66;47.56
75740;BME280;64357;51.344;6.550;2023-07-30T12:31:40;100747.47;;;24.38;48.97
75740;BME280;64357;51.344;6.550;2023-07-30T12:34:05;100743.78;;;24.14;50.78
75740;BME280;64357;51.344;6.550;2023-07-30T12:36:33;100764.44;;;24.69;49.19
75740;BME280;64357;51.344;6.550;2023-07-30T12:39:01;100766.34;;;24.73;48.57
75740;BME280;64357;51.344;6.550;2023-07-30T12:41:26;100763.94;;;24.16;50.32
75740;BME280;64357;51.344;6.550;2023-07-30T12:43:55;100763.03;;;23.58;51.38
75740;BME280;64357;51.344;6.550;2023-07-30T12:46:26;100763.38;;;23.65;51.77
75740;BME280;64357;51.344;6.550;2023-07-30T12:49:03;100760.31;;;23.56;52.34
75740;BME280;64357;51.344;6.550;2023-07-30T12:51:34;100747.53;;;24.00;50.85